createdAt,value
2017-12-22T00:01:27.154Z,35.35
2017-12-22T00:03:55.507Z,42.30
2017-12-22T00:06:23.099Z,49.95
2017-12-22T00:08:51.487Z,46.95
2017-12-22T00:11:19.078Z,48.58
2017-12-22T00:13:46.640Z,41.10
2017-12-22T00:16:14.267Z,41.88
2017-12-22T00:18:41.922Z,42.42
2017-12-22T00:21:10.275Z,38.40
2017-12-22T00:23:37.903Z,40.90
2017-12-22T00:26:05.571Z,45.25
2017-12-22T00:28:33.202Z,44.08
2017-12-22T00:31:00.818Z,45.22
2017-12-22T00:33:28.508Z,46.28
2017-12-22T00:35:56.866Z,41.33
2017-12-22T00:38:24.491Z,43.92
2017-12-22T00:40:52.080Z,42.25
2017-12-22T00:43:19.701Z,44.50
2017-12-22T00:45:59.081Z,46.65
2017-12-22T00:48:26.674Z,44.38
2017-12-22T00:50:54.264Z,40.97
2017-12-22T00:53:21.842Z,46.90
2017-12-22T00:55:49.444Z,45.80
2017-12-22T00:58:17.791Z,46.37
2017-12-22T01:00:45.415Z,53.53
2017-12-22T01:03:13.004Z,52.55
2017-12-22T01:05:40.592Z,46.28
2017-12-22T01:08:08.151Z,46.17
2017-12-22T01:10:35.787Z,43.13
2017-12-22T01:13:04.114Z,46.67
2017-12-22T01:15:37.416Z,44.78
2017-12-22T01:18:10.545Z,45.38
2017-12-22T01:20:38.104Z,44.17
2017-12-22T01:23:05.705Z,46.42
2017-12-22T01:25:34.059Z,47.00
2017-12-22T01:28:01.695Z,46.75
2017-12-22T01:30:29.291Z,52.67
2017-12-22T01:32:56.896Z,49.22
2017-12-22T01:35:24.490Z,47.97
2017-12-22T01:37:52.043Z,45.88
2017-12-22T01:40:19.651Z,47.83
2017-12-22T01:42:48.151Z,39.83
2017-12-22T01:45:15.743Z,41.90
2017-12-22T01:47:43.335Z,40.12
2017-12-22T01:50:10.894Z,44.05
2017-12-22T01:52:38.512Z,35.53
2017-12-22T01:55:06.111Z,41.42
2017-12-22T01:57:33.708Z,41.60
2017-12-22T02:00:02.063Z,44.17
2017-12-22T02:02:29.711Z,40.08
2017-12-22T02:04:57.262Z,35.75
2017-12-22T02:07:24.858Z,35.60
2017-12-22T02:09:53.271Z,37.75
2017-12-22T02:12:20.863Z,42.22
2017-12-22T02:14:48.487Z,44.85
2017-12-22T02:17:16.078Z,43.38
2017-12-22T02:19:43.633Z,43.85
2017-12-22T02:22:11.224Z,46.88
2017-12-22T02:24:38.824Z,47.72
2017-12-22T02:27:06.412Z,50.55
2017-12-22T02:29:34.001Z,45.15
2017-12-22T02:32:01.678Z,50.03
2017-12-22T02:34:29.241Z,47.70
2017-12-22T02:36:57.601Z,45.33
2017-12-22T02:39:25.194Z,49.20
2017-12-22T02:41:52.792Z,46.92
2017-12-22T02:44:20.349Z,50.38
2017-12-22T02:46:47.947Z,43.85
2017-12-22T02:49:15.565Z,44.45
2017-12-22T02:51:43.155Z,42.42
2017-12-22T02:54:10.751Z,44.55
2017-12-22T02:56:39.113Z,43.05
2017-12-22T02:59:06.709Z,42.95
2017-12-22T03:01:34.294Z,43.70
2017-12-22T03:04:01.846Z,45.63
2017-12-22T03:06:29.464Z,45.10
2017-12-22T03:08:57.822Z,46.83
2017-12-22T03:11:25.381Z,47.55
2017-12-22T03:13:52.982Z,45.28
2017-12-22T03:16:20.545Z,59.85
2017-12-22T03:18:48.100Z,49.63
2017-12-22T03:21:15.696Z,47.28
2017-12-22T03:23:43.321Z,52.25
2017-12-22T03:26:10.916Z,46.33
2017-12-22T03:28:38.507Z,47.33
2017-12-22T03:31:06.113Z,45.35
2017-12-22T03:33:33.706Z,49.42
2017-12-22T03:36:01.296Z,45.20
2017-12-22T03:38:29.627Z,44.58
2017-12-22T03:40:57.220Z,43.47
2017-12-22T03:43:24.778Z,49.75
2017-12-22T03:45:52.329Z,45.70
2017-12-22T03:48:21.090Z,42.67
2017-12-22T03:50:48.688Z,41.65
2017-12-22T03:53:16.362Z,51.85
2017-12-22T03:55:43.957Z,49.13
2017-12-22T03:58:11.611Z,50.03
2017-12-22T04:00:39.216Z,52.97
2017-12-22T04:03:06.775Z,49.35
2017-12-22T04:05:34.367Z,52.03
2017-12-22T04:08:01.918Z,49.97
2017-12-22T04:10:29.533Z,49.70
2017-12-22T04:12:57.106Z,50.67
2017-12-22T04:15:24.958Z,49.00
2017-12-22T04:17:52.548Z,46.90
2017-12-22T04:20:20.106Z,50.78
2017-12-22T04:22:47.795Z,47.83
2017-12-22T04:25:15.383Z,50.42
2017-12-22T04:27:43.682Z,48.67
2017-12-22T04:30:11.244Z,43.15
2017-12-22T04:32:38.836Z,43.28
2017-12-22T04:35:06.428Z,45.15
2017-12-22T04:37:34.796Z,44.28
2017-12-22T04:40:03.332Z,43.90
2017-12-22T04:42:30.920Z,40.00
2017-12-22T04:44:58.564Z,40.78
2017-12-22T04:47:26.159Z,43.63
2017-12-22T04:49:53.748Z,43.70
2017-12-22T04:52:21.343Z,44.55
2017-12-22T04:54:48.896Z,47.80
2017-12-22T04:57:16.500Z,44.33
2017-12-22T04:59:44.052Z,46.25
2017-12-22T05:02:11.651Z,40.67
2017-12-22T05:04:39.248Z,45.28
2017-12-22T05:07:06.839Z,43.80
2017-12-22T05:09:35.628Z,49.17
2017-12-22T05:12:03.251Z,46.90
2017-12-22T05:14:30.858Z,41.45
2017-12-22T05:16:58.459Z,42.22
2017-12-22T05:19:26.014Z,39.70
2017-12-22T05:21:54.324Z,45.78
2017-12-22T05:24:21.920Z,50.08
2017-12-22T05:26:50.246Z,44.65
2017-12-22T05:29:17.838Z,39.20
2017-12-22T05:31:45.437Z,48.60
2017-12-22T05:34:13.106Z,51.50
2017-12-22T05:36:40.711Z,43.92
2017-12-22T05:39:08.336Z,50.30
2017-12-22T05:41:35.940Z,41.58
2017-12-22T05:44:03.520Z,46.22
2017-12-22T05:46:31.076Z,48.22
2017-12-22T05:48:58.672Z,43.20
2017-12-22T05:51:26.313Z,45.70
2017-12-22T05:53:54.889Z,44.05
2017-12-22T05:56:22.442Z,47.70
2017-12-22T05:58:50.095Z,45.50
2017-12-22T06:01:17.645Z,40.70
2017-12-22T06:03:45.241Z,48.00
2017-12-22T06:06:13.600Z,41.80
2017-12-22T06:08:41.224Z,41.70
2017-12-22T06:11:08.770Z,39.22
2017-12-22T06:13:36.374Z,40.58
2017-12-22T06:16:03.968Z,40.38
2017-12-22T06:18:32.318Z,41.53
2017-12-22T06:20:59.920Z,35.53
2017-12-22T06:23:27.479Z,41.47
2017-12-22T06:25:55.101Z,37.30
2017-12-22T06:28:22.698Z,36.35
2017-12-22T06:30:50.265Z,37.85
2017-12-22T06:33:17.864Z,39.60
2017-12-22T06:35:45.495Z,39.08
2017-12-22T06:38:13.575Z,39.05
2017-12-22T06:40:41.171Z,41.53
2017-12-22T06:43:08.736Z,38.95
2017-12-22T06:45:36.335Z,37.25
2017-12-22T06:48:03.887Z,40.05
2017-12-22T06:50:31.492Z,35.63
2017-12-22T06:52:59.163Z,40.35
2017-12-22T06:55:26.721Z,42.30
2017-12-22T06:57:54.324Z,41.33
2017-12-22T07:00:22.660Z,44.10
2017-12-22T07:02:50.300Z,43.45
2017-12-22T07:05:17.897Z,40.28
2017-12-22T07:07:46.327Z,43.22
2017-12-22T07:10:13.915Z,39.40
2017-12-22T07:12:41.513Z,40.10
2017-12-22T07:15:09.840Z,47.08
2017-12-22T07:17:37.451Z,41.80
2017-12-22T07:20:05.819Z,45.30
2017-12-22T07:22:33.418Z,42.80
2017-12-22T07:25:01.007Z,47.28
2017-12-22T07:27:28.606Z,45.15
2017-12-22T07:29:56.200Z,44.92
2017-12-22T07:32:23.803Z,45.17
2017-12-22T07:34:51.394Z,52.05
2017-12-22T07:37:20.532Z,56.83
2017-12-22T07:39:48.133Z,48.50
2017-12-22T07:42:15.731Z,50.78
2017-12-22T07:44:44.727Z,46.40
2017-12-22T07:47:12.332Z,55.35
2017-12-22T07:49:39.977Z,50.28
2017-12-22T07:52:07.576Z,51.85
2017-12-22T07:54:35.175Z,51.70
2017-12-22T07:57:02.767Z,60.85
2017-12-22T07:59:30.367Z,58.42
2017-12-22T08:01:57.929Z,48.53
2017-12-22T08:04:25.529Z,61.95
2017-12-22T08:06:53.155Z,53.45
2017-12-22T08:09:21.524Z,54.67
2017-12-22T08:11:49.128Z,63.17
2017-12-22T08:14:16.724Z,51.17
2017-12-22T08:16:44.317Z,54.10
2017-12-22T08:19:12.674Z,58.20
2017-12-22T08:21:40.259Z,59.65
2017-12-22T08:24:08.580Z,48.95
2017-12-22T08:26:36.207Z,51.10
2017-12-22T08:29:04.525Z,52.15
2017-12-22T08:31:32.115Z,57.58
2017-12-22T08:33:59.665Z,58.75
2017-12-22T08:36:27.238Z,57.30
2017-12-22T08:38:54.854Z,50.53
2017-12-22T08:41:22.409Z,59.33
2017-12-22T08:43:51.032Z,49.75
2017-12-22T08:46:18.628Z,55.85
2017-12-22T08:48:46.982Z,62.60
2017-12-22T08:51:14.587Z,55.00
2017-12-22T08:53:42.188Z,58.20
2017-12-22T08:56:09.784Z,62.30
2017-12-22T08:58:38.140Z,55.85
2017-12-22T09:01:05.727Z,60.78
2017-12-22T09:03:34.052Z,52.25
2017-12-22T09:06:01.608Z,54.67
2017-12-22T09:08:29.662Z,48.25
2017-12-22T09:10:57.264Z,50.35
2017-12-22T09:13:24.823Z,56.50
2017-12-22T09:15:52.435Z,62.78
2017-12-22T09:18:20.025Z,53.60
2017-12-22T09:20:47.588Z,52.15
2017-12-22T09:23:15.179Z,53.20
2017-12-22T09:25:42.736Z,56.08
2017-12-22T09:28:10.298Z,51.10
2017-12-22T09:30:37.892Z,50.20
2017-12-22T09:33:05.531Z,45.47
2017-12-22T09:35:33.069Z,45.25
2017-12-22T09:38:00.671Z,44.53
2017-12-22T09:40:28.270Z,49.80
2017-12-22T09:42:56.637Z,49.47
2017-12-22T09:45:24.231Z,49.20
2017-12-22T09:47:51.864Z,53.87
2017-12-22T09:50:19.469Z,59.28
2017-12-22T09:52:47.842Z,49.40
2017-12-22T09:55:16.663Z,55.45
2017-12-22T09:57:44.258Z,51.45
2017-12-22T10:00:11.852Z,49.10
2017-12-22T10:02:39.422Z,50.10
2017-12-22T10:05:07.783Z,45.65
2017-12-22T10:07:35.430Z,53.55
2017-12-22T10:10:02.985Z,50.97
2017-12-22T10:12:30.584Z,48.13
2017-12-22T10:14:58.944Z,52.47
2017-12-22T10:17:26.542Z,50.10
2017-12-22T10:19:54.761Z,54.42
2017-12-22T10:22:22.374Z,58.63
2017-12-22T10:24:49.932Z,67.30
2017-12-22T10:27:18.287Z,58.28
2017-12-22T10:29:45.872Z,54.10
2017-12-22T10:32:14.236Z,56.42
2017-12-22T10:34:42.599Z,59.28
2017-12-22T10:37:10.152Z,52.47
2017-12-22T10:39:37.751Z,58.60
2017-12-22T10:42:06.176Z,56.13
2017-12-22T10:44:33.731Z,59.72
2017-12-22T10:47:01.361Z,63.40
2017-12-22T10:49:29.666Z,54.47
2017-12-22T10:51:57.221Z,62.75
2017-12-22T10:54:24.814Z,60.05
2017-12-22T10:56:52.419Z,63.67
2017-12-22T10:59:20.015Z,62.55
2017-12-22T11:01:47.570Z,58.72
2017-12-22T11:04:15.128Z,58.47
2017-12-22T11:06:42.688Z,56.85
2017-12-22T11:09:10.336Z,71.07
2017-12-22T11:11:37.990Z,73.72
2017-12-22T11:14:06.420Z,67.35
2017-12-22T11:16:34.015Z,68.07
2017-12-22T11:19:01.591Z,64.20
2017-12-22T11:21:29.187Z,60.65
2017-12-22T11:23:56.938Z,67.00
2017-12-22T11:26:24.497Z,82.80
2017-12-22T11:28:52.050Z,71.65
2017-12-22T11:31:19.927Z,58.97
2017-12-22T11:33:47.581Z,63.33
2017-12-22T11:36:15.210Z,64.05
2017-12-22T11:38:43.571Z,63.40
2017-12-22T11:41:11.172Z,64.60
2017-12-22T11:43:38.794Z,63.65
2017-12-22T11:46:07.156Z,60.28
2017-12-22T11:48:34.823Z,65.57
2017-12-22T11:51:02.477Z,56.60
2017-12-22T11:53:30.084Z,75.72
2017-12-22T11:55:57.683Z,59.80
2017-12-22T11:58:25.307Z,63.63
2017-12-22T12:00:52.958Z,61.55
2017-12-22T12:03:21.484Z,63.53
2017-12-22T12:05:49.932Z,61.70
2017-12-22T12:08:17.593Z,55.35
2017-12-22T12:10:45.329Z,54.25
2017-12-22T12:13:13.770Z,60.25
2017-12-22T12:15:42.174Z,56.03
2017-12-22T12:18:10.103Z,66.45
2017-12-22T12:20:37.765Z,65.97
2017-12-22T12:23:05.444Z,52.60
2017-12-22T12:25:33.283Z,57.42
2017-12-22T12:28:00.972Z,53.33
2017-12-22T12:30:28.593Z,49.05
2017-12-22T12:32:56.964Z,47.88
2017-12-22T12:35:25.344Z,57.90
2017-12-22T12:37:53.819Z,53.13
2017-12-22T12:40:22.207Z,58.13
2017-12-22T12:42:50.877Z,56.22
2017-12-22T12:45:18.520Z,64.80
2017-12-22T12:47:46.126Z,61.03
2017-12-22T12:50:14.610Z,67.18
2017-12-22T12:52:42.279Z,67.80
2017-12-22T12:55:09.948Z,70.65
2017-12-22T12:57:37.947Z,70.32
2017-12-22T13:00:05.628Z,71.10
2017-12-22T13:02:33.231Z,69.15
2017-12-22T13:05:00.865Z,74.28
2017-12-22T13:07:29.217Z,65.97
2017-12-22T13:09:56.836Z,63.72
2017-12-22T13:12:24.461Z,68.68
2017-12-22T13:14:53.093Z,72.35
2017-12-22T13:17:20.726Z,65.47
2017-12-22T13:19:48.360Z,63.75
2017-12-22T13:22:16.058Z,67.65
2017-12-22T13:24:43.625Z,67.95
2017-12-22T13:27:11.872Z,61.65
2017-12-22T13:29:40.282Z,65.35
2017-12-22T13:32:08.138Z,64.03
2017-12-22T13:34:36.394Z,67.40
2017-12-22T13:37:04.462Z,66.57
2017-12-22T13:39:32.566Z,56.05
2017-12-22T13:42:00.700Z,62.05
2017-12-22T13:44:28.836Z,50.42
2017-12-22T13:46:57.194Z,57.85
2017-12-22T13:49:25.802Z,41.37
2017-12-22T13:51:53.832Z,39.55
2017-12-22T13:54:21.970Z,60.88
2017-12-22T13:56:50.115Z,40.15
2017-12-22T13:59:19.057Z,40.40
2017-12-22T14:01:47.181Z,40.63
2017-12-22T14:04:15.320Z,36.65
2017-12-22T14:06:43.473Z,42.35
2017-12-22T14:09:11.169Z,41.80
2017-12-22T14:11:38.765Z,33.83
2017-12-22T14:14:06.359Z,39.42
2017-12-22T14:16:33.951Z,33.15
2017-12-22T14:19:01.508Z,32.60
2017-12-22T14:21:29.100Z,34.55
2017-12-22T14:23:56.708Z,25.73
2017-12-22T14:26:26.154Z,32.15
2017-12-22T14:28:54.807Z,26.23
2017-12-22T14:31:23.251Z,20.65
2017-12-22T14:33:50.989Z,20.05
2017-12-22T14:36:18.779Z,21.17
2017-12-22T14:38:46.377Z,28.20
2017-12-22T14:41:14.740Z,22.30
2017-12-22T14:43:42.448Z,25.60
2017-12-22T14:46:10.515Z,17.45
2017-12-22T14:48:38.105Z,16.25
2017-12-22T14:51:07.890Z,18.62
2017-12-22T14:53:35.522Z,19.92
2017-12-22T14:56:03.884Z,14.60
2017-12-22T14:58:31.503Z,18.77
2017-12-22T15:00:59.203Z,26.48
2017-12-22T15:03:26.753Z,15.23
2017-12-22T15:05:54.379Z,15.75
2017-12-22T15:08:21.980Z,13.20
2017-12-22T15:10:49.572Z,17.92
2017-12-22T15:13:17.171Z,17.25
2017-12-22T15:15:44.755Z,10.70
2017-12-22T15:18:12.349Z,12.93
2017-12-22T15:20:40.708Z,18.62
2017-12-22T15:23:08.295Z,15.70
2017-12-22T15:25:36.607Z,14.10
2017-12-22T15:28:04.295Z,20.67
2017-12-22T15:30:31.883Z,19.58
2017-12-22T15:33:00.266Z,26.27
2017-12-22T15:35:28.868Z,23.38
2017-12-22T15:37:56.458Z,23.10
2017-12-22T15:40:24.051Z,25.90
2017-12-22T15:42:52.727Z,29.77
2017-12-22T15:45:20.916Z,26.83
2017-12-22T15:47:49.460Z,27.42
2017-12-22T15:50:17.057Z,22.23
2017-12-22T15:52:44.696Z,25.10
2017-12-22T15:55:12.555Z,35.85
2017-12-22T15:57:40.160Z,26.08
2017-12-22T16:00:08.542Z,34.88
2017-12-22T16:02:37.032Z,24.60
2017-12-22T16:05:04.760Z,29.30
2017-12-22T16:07:32.354Z,26.05
2017-12-22T16:10:01.170Z,27.02
2017-12-22T16:12:28.775Z,26.87
2017-12-22T16:14:56.508Z,31.92
2017-12-22T16:17:24.105Z,27.70
2017-12-22T16:19:51.709Z,24.08
2017-12-22T16:22:20.086Z,31.60
2017-12-22T16:24:47.802Z,25.42
2017-12-22T16:27:15.412Z,27.48
2017-12-22T16:29:43.024Z,26.25
2017-12-22T16:32:10.662Z,30.00
2017-12-22T16:34:38.284Z,22.60
2017-12-22T16:37:05.892Z,25.02
2017-12-22T16:39:33.540Z,26.30
2017-12-22T16:42:01.248Z,29.90
2017-12-22T16:44:28.859Z,33.03
2017-12-22T16:46:56.456Z,27.25
2017-12-22T16:49:24.075Z,28.30
2017-12-22T16:51:51.723Z,26.67
2017-12-22T16:54:19.322Z,25.65
2017-12-22T16:56:46.913Z,30.67
2017-12-22T16:59:14.512Z,32.53
2017-12-22T17:01:42.109Z,30.25
2017-12-22T17:04:09.897Z,36.58
2017-12-22T17:06:37.429Z,35.25
2017-12-22T17:09:05.028Z,33.78
2017-12-22T17:11:33.390Z,40.45
2017-12-22T17:14:00.988Z,32.50
2017-12-22T17:16:28.588Z,33.28
2017-12-22T17:18:56.837Z,38.03
2017-12-22T17:21:24.427Z,35.63
2017-12-22T17:23:52.033Z,38.08
2017-12-22T17:26:20.412Z,38.08
2017-12-22T17:28:48.017Z,44.17
2017-12-22T17:31:15.621Z,33.65
2017-12-22T17:33:43.983Z,27.17
2017-12-22T17:36:11.596Z,32.58
2017-12-22T17:38:39.942Z,29.35
2017-12-22T17:41:07.688Z,34.97
2017-12-22T17:43:35.347Z,30.60
2017-12-22T17:46:03.056Z,32.60
2017-12-22T17:48:30.886Z,38.25
2017-12-22T17:50:58.823Z,37.72
2017-12-22T17:53:26.416Z,33.75
2017-12-22T17:55:54.044Z,29.37
2017-12-22T17:58:21.637Z,33.10
2017-12-22T18:00:49.146Z,38.95
2017-12-22T18:03:16.742Z,35.35
2017-12-22T18:05:44.373Z,37.00
2017-12-22T18:08:12.034Z,40.08
2017-12-22T18:10:40.787Z,44.13
2017-12-22T18:13:09.218Z,35.65
2017-12-22T18:15:36.814Z,40.25
2017-12-22T18:18:04.408Z,37.88
2017-12-22T18:20:32.016Z,33.38
2017-12-22T18:22:59.602Z,34.95
2017-12-22T18:25:27.929Z,35.53
2017-12-22T18:27:55.522Z,34.08
2017-12-22T18:30:23.168Z,34.67
2017-12-22T18:32:50.914Z,33.40
2017-12-22T18:35:18.509Z,39.33
2017-12-22T18:37:46.097Z,34.13
2017-12-22T18:40:14.497Z,27.77
2017-12-22T18:42:42.094Z,29.30
2017-12-22T18:45:09.686Z,29.17
2017-12-22T18:47:38.043Z,33.10
2017-12-22T18:50:06.499Z,27.70
2017-12-22T18:52:34.146Z,33.92
2017-12-22T18:55:01.756Z,33.25
2017-12-22T18:57:29.522Z,36.80
2017-12-22T18:59:58.737Z,34.08
2017-12-22T19:02:27.209Z,27.65
2017-12-22T19:04:55.574Z,29.67
2017-12-22T19:07:23.169Z,25.73
2017-12-22T19:09:50.780Z,35.05
2017-12-22T19:12:18.386Z,29.70
2017-12-22T19:14:46.765Z,30.15
2017-12-22T19:17:15.121Z,30.80
2017-12-22T19:19:42.712Z,32.22
2017-12-22T19:22:10.356Z,30.17
2017-12-22T19:24:39.120Z,29.90
2017-12-22T19:27:06.715Z,30.17
2017-12-22T19:29:35.072Z,34.90
2017-12-22T19:32:02.795Z,26.77
2017-12-22T19:34:30.355Z,28.17
2017-12-22T19:36:58.063Z,25.80
2017-12-22T19:39:26.432Z,27.58
2017-12-22T19:41:54.037Z,30.92
2017-12-22T19:44:22.667Z,34.47
2017-12-22T19:46:50.258Z,31.67
2017-12-22T19:49:18.582Z,31.55
2017-12-22T19:51:46.175Z,23.55
2017-12-22T19:54:13.809Z,21.35
2017-12-22T19:56:41.414Z,27.45
2017-12-22T19:59:09.738Z,25.77
2017-12-22T20:01:37.331Z,34.60
2017-12-22T20:04:04.921Z,20.30
2017-12-22T20:06:33.251Z,24.42
2017-12-22T20:09:00.842Z,26.77
2017-12-22T20:11:28.479Z,24.30
2017-12-22T20:13:56.124Z,20.45
2017-12-22T20:16:24.023Z,22.00
2017-12-22T20:18:51.620Z,23.38
2017-12-22T20:21:19.228Z,24.30
2017-12-22T20:23:46.827Z,21.17
2017-12-22T20:26:15.194Z,17.25
2017-12-22T20:28:42.862Z,20.48
2017-12-22T20:31:11.191Z,27.75
2017-12-22T20:33:38.790Z,20.45
2017-12-22T20:36:06.404Z,22.33
2017-12-22T20:38:34.000Z,19.83
2017-12-22T20:41:01.566Z,28.00
2017-12-22T20:43:34.193Z,25.80
2017-12-22T20:46:02.125Z,23.73
2017-12-22T21:05:50.827Z,20.92
2017-12-22T21:08:19.151Z,22.37
2017-12-22T21:10:46.926Z,19.33
2017-12-22T21:13:14.715Z,19.62
2017-12-22T21:15:42.306Z,19.25
2017-12-22T21:18:10.657Z,15.90
2017-12-22T21:20:38.325Z,23.23
2017-12-22T21:23:05.907Z,19.35
2017-12-22T21:25:34.185Z,13.43
2017-12-22T21:28:02.605Z,13.82
2017-12-22T21:30:30.304Z,13.75
2017-12-22T21:32:57.959Z,19.17
2017-12-22T21:35:25.544Z,15.75
2017-12-22T21:37:53.899Z,16.25
2017-12-22T21:40:21.665Z,15.43
2017-12-22T21:42:49.251Z,21.12
2017-12-22T21:45:17.591Z,13.18
2017-12-22T21:47:45.196Z,13.30
2017-12-22T21:50:13.544Z,9.70
2017-12-22T21:52:41.123Z,12.82
2017-12-22T21:55:09.487Z,20.40
2017-12-22T21:57:37.056Z,13.10
2017-12-22T22:00:04.671Z,14.45
2017-12-22T22:02:32.278Z,17.67
2017-12-22T22:05:00.653Z,16.35
2017-12-22T22:07:28.565Z,19.37
2017-12-22T22:09:56.733Z,13.02
2017-12-22T22:12:24.318Z,21.15
2017-12-22T22:14:51.872Z,19.80
2017-12-22T22:17:19.504Z,16.90
2017-12-22T22:19:47.851Z,19.77
2017-12-22T22:22:15.440Z,17.48
2017-12-22T22:24:43.801Z,20.20
2017-12-22T22:27:11.407Z,13.68
2017-12-22T22:29:38.999Z,14.02
2017-12-22T22:32:06.599Z,17.15
2017-12-22T22:34:34.956Z,16.25
2017-12-22T22:37:02.506Z,16.12
2017-12-22T22:39:30.098Z,13.43
2017-12-22T22:41:58.462Z,14.30
2017-12-22T22:44:26.047Z,16.40
2017-12-22T22:46:53.645Z,19.55
2017-12-22T22:49:21.235Z,25.83
2017-12-22T22:51:48.833Z,16.10
2017-12-22T22:54:16.427Z,18.92
2017-12-22T22:56:43.977Z,22.05
2017-12-22T22:59:11.527Z,15.75
2017-12-22T23:01:39.107Z,16.35
2017-12-22T23:04:06.688Z,13.50
2017-12-22T23:06:34.271Z,19.12
2017-12-22T23:09:02.627Z,12.77
2017-12-22T23:11:30.175Z,12.05
2017-12-22T23:13:57.770Z,12.82
2017-12-22T23:16:26.133Z,13.82
2017-12-22T23:18:53.727Z,16.15
2017-12-22T23:21:21.316Z,18.73
2017-12-22T23:23:48.913Z,17.40
2017-12-22T23:26:16.467Z,15.13
2017-12-22T23:28:44.023Z,17.62
2017-12-22T23:31:11.577Z,17.52
2017-12-22T23:33:39.168Z,18.42
2017-12-22T23:36:07.539Z,16.27
2017-12-22T23:38:35.128Z,23.77
2017-12-22T23:41:02.716Z,20.80
2017-12-22T23:43:30.272Z,15.00
2017-12-22T23:45:57.824Z,21.70
2017-12-22T23:48:25.412Z,17.67
2017-12-22T23:50:53.043Z,23.25
2017-12-22T23:53:20.605Z,16.80
2017-12-22T23:55:48.194Z,17.08
2017-12-22T23:58:15.842Z,19.50
